Time;durP1;ratioP1;P1;durP2;ratioP2;P2;SDS_P1;SDS_P2;PMS_P1;PMS_P2;Temp;Humidity;BMP_temperature;BMP_pressure;BME280_temperature;BME280_humidity;BME280_pressure;Samples;Min_cycle;Max_cycle;Signal;HPM_P1;HPM_P2
2022/04/19 00:01:24;;;;;;;4.47;4.07;;;;;;;11.47;45.08;100880.81;4947658;28;20051;-83
2022/04/19 00:03:50;;;;;;;4.00;3.70;;;;;;;11.45;44.83;100880.13;4947882;28;20059;-82
2022/04/19 00:06:17;;;;;;;3.55;3.25;;;;;;;11.14;44.71;100835.00;4963403;28;20184;-83
2022/04/19 00:08:44;;;;;;;5.85;3.60;;;;;;;11.31;44.99;100860.06;4948186;28;20055;-84
2022/04/19 00:11:11;;;;;;;3.90;3.60;;;;;;;11.30;45.34;100872.50;4947713;29;20051;-83
2022/04/19 00:13:37;;;;;;;3.33;3.00;;;;;;;11.20;45.46;100853.03;4947723;28;20106;-83
2022/04/19 00:16:04;;;;;;;7.68;3.90;;;;;;;11.39;45.34;100870.03;4947599;28;20139;-82
2022/04/19 00:18:32;;;;;;;7.95;4.07;;;;;;;10.85;45.18;100785.25;4963873;28;20424;-83
2022/04/19 00:20:59;;;;;;;4.97;3.40;;;;;;;11.32;45.40;100851.97;4947662;29;20087;-82
2022/04/19 00:23:26;;;;;;;4.93;3.53;;;;;;;11.06;45.75;100813.53;4954102;28;20425;-83
2022/04/19 00:25:55;;;;;;;3.45;3.15;;;;;;;11.26;46.01;100855.16;4968230;28;20571;-83
2022/04/19 00:28:22;;;;;;;5.10;3.65;;;;;;;11.28;46.39;100858.50;4966713;28;20061;-82
2022/04/19 00:30:55;;;;;;;5.30;3.63;;;;;;;11.22;46.73;100843.13;4966873;28;20078;-82
2022/04/19 00:33:21;;;;;;;5.82;3.55;;;;;;;11.26;46.38;100851.66;4967079;28;20050;-83
2022/04/19 00:35:48;;;;;;;4.95;3.58;;;;;;;11.22;46.82;100853.75;4967172;28;20047;-81
2022/04/19 00:38:14;;;;;;;4.60;3.88;;;;;;;11.31;46.14;100852.94;4967644;28;20422;-82
2022/04/19 00:40:41;;;;;;;4.05;3.25;;;;;;;11.32;45.74;100836.00;4967663;28;20133;-83
2022/04/19 00:43:09;;;;;;;3.50;3.20;;;;;;;11.47;45.63;100851.59;4966593;28;20072;-83
2022/04/19 00:45:36;;;;;;;5.28;3.70;;;;;;;11.43;45.57;100847.50;4966922;28;20060;-83
2022/04/19 00:48:04;;;;;;;5.72;3.40;;;;;;;11.41;45.11;100842.34;4966946;28;20270;-81
2022/04/19 00:50:31;;;;;;;6.38;3.58;;;;;;;11.00;45.73;100790.19;4966590;28;20057;-82
2022/04/19 00:52:58;;;;;;;3.55;3.25;;;;;;;11.01;45.40;100782.06;4966349;28;20137;-83
2022/04/19 00:55:25;;;;;;;4.00;3.13;;;;;;;10.51;46.09;100725.41;4966705;28;20504;-83
2022/04/19 00:57:52;;;;;;;8.07;3.10;;;;;;;11.28;46.30;100836.41;4966552;28;20047;-82
2022/04/19 01:00:20;;;;;;;6.55;4.05;;;;;;;11.25;45.79;100821.56;4966493;28;20065;-82
2022/04/19 01:02:47;;;;;;;4.43;4.00;;;;;;;10.74;45.69;100734.03;4967618;28;20061;-82
2022/04/19 01:05:14;;;;;;;4.00;3.58;;;;;;;11.43;46.00;100839.53;4966570;28;20110;-82
2022/04/19 01:07:45;;;;;;;5.93;3.60;;;;;;;11.31;46.54;100833.47;4966470;28;20046;-83
2022/04/19 01:10:11;;;;;;;4.63;3.88;;;;;;;10.97;45.44;100769.19;4966772;28;20054;-82
2022/04/19 01:15:23;;;;;;;5.22;4.05;;;;;;;10.80;47.56;100803.41;4967457;28;20503;-82
2022/04/19 01:17:51;;;;;;;10.38;3.95;;;;;;;10.98;47.98;100834.63;4966528;28;20050;-82
2022/04/19 01:20:18;;;;;;;7.63;4.50;;;;;;;10.81;47.93;100828.13;4971258;28;20051;-81
2022/04/19 01:22:48;;;;;;;5.75;4.15;;;;;;;10.75;48.71;100824.16;4969061;28;20043;-81
2022/04/19 01:25:18;;;;;;;6.10;4.45;;;;;;;9.96;48.35;100689.34;4950547;28;20080;-83
2022/04/19 01:27:46;;;;;;;4.85;4.35;;;;;;;10.60;48.36;100797.13;4952071;28;20057;-84
2022/04/19 01:30:15;;;;;;;6.05;4.20;;;;;;;10.64;47.67;100803.03;4952035;28;20043;-82
2022/04/19 01:32:41;;;;;;;4.72;3.75;;;;;;;10.74;47.78;100821.66;4950769;28;20054;-82
2022/04/19 01:35:19;;;;;;;4.85;4.32;;;;;;;10.33;48.58;100739.28;4950401;28;20053;-82
2022/04/19 01:37:47;;;;;;;5.20;4.18;;;;;;;10.84;47.58;100818.06;4950399;28;20114;-81
2022/04/19 01:40:17;;;;;;;5.80;5.20;;;;;;;10.82;48.57;100820.00;4950462;28;20489;-82
2022/04/19 01:42:57;;;;;;;6.10;4.97;;;;;;;10.55;48.58;100779.91;4950668;28;20134;-81
2022/04/19 01:45:26;;;;;;;6.65;4.75;;;;;;;10.60;48.45;100797.13;4966571;28;20059;-82
2022/04/19 01:47:53;;;;;;;6.15;5.15;;;;;;;10.35;48.21;100747.97;4950393;29;20490;-83
2022/04/19 01:50:21;;;;;;;7.35;5.05;;;;;;;10.71;48.69;100820.13;4950169;28;20130;-83
2022/04/19 01:52:49;;;;;;;7.90;5.43;;;;;;;10.73;48.99;100812.00;4950315;28;20138;-83
2022/04/19 01:55:17;;;;;;;5.95;4.68;;;;;;;10.71;48.48;100812.16;4950156;28;20142;-83
2022/04/19 01:57:58;;;;;;;6.93;5.03;;;;;;;10.27;48.10;100732.69;4951677;28;20047;-83
2022/04/19 02:00:28;;;;;;;7.55;5.10;;;;;;;10.45;48.56;100775.41;4951472;28;20083;-83
2022/04/19 02:02:55;;;;;;;6.57;5.22;;;;;;;10.63;49.40;100809.28;4949756;28;20055;-83
2022/04/19 02:05:23;;;;;;;8.88;5.40;;;;;;;10.55;48.96;100798.50;4950113;28;20051;-83
2022/04/19 02:07:49;;;;;;;6.60;4.93;;;;;;;9.78;49.68;100669.69;4950140;28;20138;-82
2022/04/19 02:10:17;;;;;;;11.07;6.40;;;;;;;10.66;48.84;100804.56;4950067;29;20052;-83
2022/04/19 02:12:45;;;;;;;6.75;5.78;;;;;;;10.61;49.57;100801.47;4950083;28;20109;-83
2022/04/19 02:15:14;;;;;;;8.00;6.10;;;;;;;10.56;49.07;100803.69;4949891;28;20047;-83
2022/04/19 02:17:48;;;;;;;8.35;5.63;;;;;;;10.53;49.25;100800.44;4949715;28;20138;-83
2022/04/19 02:20:16;;;;;;;8.65;6.70;;;;;;;10.46;49.23;100793.03;4966148;28;20048;-82
2022/04/19 02:22:44;;;;;;;8.35;6.07;;;;;;;10.52;48.87;100801.44;4950836;28;20601;-82
2022/04/19 02:25:12;;;;;;;7.03;6.32;;;;;;;10.44;49.51;100776.38;4969049;28;20412;-82
2022/04/19 02:27:40;;;;;;;7.32;6.00;;;;;;;10.34;49.41;100767.53;4968778;28;20542;-82
2022/04/19 02:30:13;;;;;;;7.88;6.05;;;;;;;10.46;48.73;100781.53;4968514;28;20141;-82
2022/04/19 02:32:44;;;;;;;9.43;6.20;;;;;;;10.28;49.36;100762.72;4984659;28;20082;-83
2022/04/19 02:35:14;;;;;;;6.40;5.75;;;;;;;10.44;49.83;100794.97;4968945;28;20426;-82
2022/04/19 02:37:51;;;;;;;8.38;5.78;;;;;;;9.46;49.22;100632.63;4968940;28;20148;-83
2022/04/19 02:40:19;;;;;;;13.05;5.35;;;;;;;10.31;49.41;100773.06;4968738;28;20050;-82
2022/04/19 02:42:47;;;;;;;6.75;5.82;;;;;;;10.43;50.08;100782.63;4969972;28;20141;-82
2022/04/19 02:45:14;;;;;;;7.20;5.20;;;;;;;10.47;49.11;100784.06;4968919;28;20058;-82
2022/04/19 02:47:43;;;;;;;7.43;5.22;;;;;;;10.03;49.24;100701.13;4969253;28;20078;-82
2022/04/19 02:50:10;;;;;;;8.55;5.28;;;;;;;10.44;48.74;100765.75;4969250;28;20138;-83
2022/04/19 02:52:37;;;;;;;7.63;4.95;;;;;;;10.58;48.88;100779.66;4968528;28;20141;-82
2022/04/19 02:55:04;;;;;;;7.45;5.25;;;;;;;10.55;48.93;100779.91;4984480;28;20129;-83
2022/04/19 02:57:32;;;;;;;5.40;4.68;;;;;;;10.57;48.97;100772.66;4969612;28;20051;-82
2022/04/19 03:00:00;;;;;;;7.40;4.47;;;;;;;10.62;48.93;100781.06;4968480;28;20046;-81
2022/04/19 03:02:26;;;;;;;7.38;3.90;;;;;;;10.57;49.14;100768.19;4969318;28;20501;-81
2022/04/19 03:04:53;;;;;;;4.30;3.63;;;;;;;10.74;48.55;100789.78;4969821;28;20066;-82
2022/04/19 03:07:20;;;;;;;4.30;3.90;;;;;;;10.77;48.84;100786.88;4967995;28;20082;-82
2022/04/19 03:09:46;;;;;;;4.10;3.70;;;;;;;10.33;48.73;100712.75;4969480;28;20051;-83
2022/04/19 03:12:15;;;;;;;3.95;3.55;;;;;;;10.81;48.86;100786.47;4969416;28;20047;-83
2022/04/19 03:14:41;;;;;;;3.45;3.15;;;;;;;10.84;49.00;100780.88;4969353;28;20477;-81
2022/04/19 03:17:08;;;;;;;4.20;3.63;;;;;;;10.72;48.64;100759.88;4968239;28;20134;-82
2022/04/19 03:19:36;;;;;;;3.67;3.10;;;;;;;10.64;49.15;100737.50;4967998;28;20147;-82
2022/04/19 03:22:03;;;;;;;4.35;3.50;;;;;;;10.87;48.62;100775.31;4969283;28;20053;-83
2022/04/19 03:27:41;;;;;;;3.92;3.45;;;;;;;10.79;48.77;100753.91;4950470;28;20141;-83
2022/04/19 03:30:09;;;;;;;4.22;3.67;;;;;;;11.00;48.71;100768.94;4965285;28;20679;-82
2022/04/19 03:32:38;;;;;;;5.18;3.42;;;;;;;10.99;48.43;100765.41;4964613;28;20055;-82
2022/04/19 03:35:05;;;;;;;5.15;3.58;;;;;;;11.03;48.90;100779.28;4948748;28;20055;-83
2022/04/19 03:37:33;;;;;;;5.88;4.22;;;;;;;10.65;48.53;100711.78;4949745;28;20047;-82
2022/04/19 03:39:59;;;;;;;5.72;4.10;;;;;;;10.41;48.50;100659.00;4965112;28;20496;-82
2022/04/19 03:42:26;;;;;;;7.07;3.95;;;;;;;11.08;48.83;100769.09;4959632;28;20397;-83
2022/04/19 03:44:54;;;;;;;4.25;3.72;;;;;;;10.67;48.61;100683.28;4952944;29;20458;-83
2022/04/19 03:47:21;;;;;;;5.55;4.35;;;;;;;11.06;48.52;100744.47;4951213;28;20485;-82
2022/04/19 03:49:47;;;;;;;4.93;4.50;;;;;;;11.09;48.44;100730.91;4949255;28;20057;-83
2022/04/19 03:52:14;;;;;;;5.07;4.57;;;;;;;11.14;48.16;100728.72;4964121;28;20138;-83
2022/04/19 03:54:41;;;;;;;5.35;4.85;;;;;;;11.01;47.74;100706.84;4948199;28;20146;-83
2022/04/19 03:57:09;;;;;;;5.07;4.68;;;;;;;11.38;47.90;100762.84;4949118;28;20354;-83
2022/04/19 03:59:42;;;;;;;6.22;5.60;;;;;;;11.36;48.15;100761.31;4949084;28;20047;-82
2022/04/19 04:02:15;;;;;;;9.23;5.28;;;;;;;11.41;48.13;100767.03;4949294;28;20059;-83
2022/04/19 04:04:42;;;;;;;7.80;5.15;;;;;;;11.45;47.79;100768.47;4949268;28;20522;-82
2022/04/19 04:07:09;;;;;;;5.68;5.15;;;;;;;11.24;48.20;100744.66;4963766;28;20548;-83
2022/04/19 04:09:35;;;;;;;6.72;5.35;;;;;;;11.33;47.48;100739.38;4948823;28;20146;-83
2022/04/19 04:12:03;;;;;;;7.47;4.55;;;;;;;11.52;47.88;100775.75;4963847;28;20047;-83
2022/04/19 04:14:30;;;;;;;5.80;5.20;;;;;;;11.23;48.01;100733.16;4948161;28;20102;-82
2022/04/19 04:16:56;;;;;;;6.57;4.95;;;;;;;11.44;48.35;100757.00;4947839;28;20405;-82
2022/04/19 04:19:23;;;;;;;5.82;5.20;;;;;;;11.40;48.36;100766.22;4948457;28;20138;-82
2022/04/19 04:21:50;;;;;;;5.47;4.53;;;;;;;10.53;48.18;100642.00;4963872;28;20691;-83
2022/04/19 04:24:16;;;;;;;6.20;5.45;;;;;;;11.09;47.97;100714.97;4960898;28;20050;-83
2022/04/19 04:26:43;;;;;;;5.70;4.45;;;;;;;11.29;48.30;100761.88;4968326;28;20109;-82
2022/04/19 04:29:10;;;;;;;5.55;4.50;;;;;;;11.14;47.92;100734.03;4968302;28;20065;-82
2022/04/19 04:31:36;;;;;;;6.68;4.80;;;;;;;11.20;48.65;100745.91;4966643;28;20133;-83
2022/04/19 04:34:03;;;;;;;8.50;5.03;;;;;;;10.91;48.57;100696.19;4967002;28;20548;-83
2022/04/19 04:36:30;;;;;;;6.47;5.72;;;;;;;11.17;48.53;100749.69;4967097;28;20055;-82
2022/04/19 04:38:56;;;;;;;6.10;5.50;;;;;;;11.20;48.57;100738.78;4966736;28;20144;-84
2022/04/19 04:41:23;;;;;;;8.55;6.07;;;;;;;11.21;48.71;100739.59;4966913;28;20551;-82
2022/04/19 04:43:50;;;;;;;8.68;5.93;;;;;;;11.12;48.48;100715.53;4966722;28;20046;-82
2022/04/19 04:51:47;;;;;;;7.78;6.13;;;;;;;11.28;47.79;100743.41;4967265;28;20604;-81
2022/04/19 04:54:13;;;;;;;6.53;5.63;;;;;;;11.14;48.18;100749.97;4967628;28;20055;-82
2022/04/19 04:56:40;;;;;;;6.55;5.78;;;;;;;11.13;47.39;100719.03;4966189;28;20440;-81
2022/04/19 04:59:06;;;;;;;8.20;4.85;;;;;;;10.81;48.12;100690.88;4968078;28;20038;-82
2022/04/19 05:01:33;;;;;;;6.75;6.05;;;;;;;11.10;47.58;100722.81;4965921;28;20448;-82
2022/04/19 05:03:59;;;;;;;8.25;6.32;;;;;;;10.93;47.78;100706.69;4966476;28;20420;-82
2022/04/19 05:06:26;;;;;;;7.53;5.43;;;;;;;11.03;48.56;100745.59;4965523;28;20050;-83
2022/04/19 05:08:53;;;;;;;8.43;5.78;;;;;;;10.91;48.88;100758.13;4965657;28;20412;-83
2022/04/19 05:11:19;;;;;;;6.20;5.53;;;;;;;11.00;48.87;100747.69;4964530;28;20468;-83
2022/04/19 05:13:46;;;;;;;6.95;6.25;;;;;;;11.01;48.37;100754.66;4964397;28;20438;-83
2022/04/19 05:16:13;;;;;;;6.30;5.70;;;;;;;10.96;48.73;100746.25;4964431;28;20403;-82
2022/04/19 05:18:39;;;;;;;7.38;6.70;;;;;;;10.78;49.29;100744.25;4964062;28;20058;-82
2022/04/19 05:21:07;;;;;;;7.70;6.20;;;;;;;10.76;49.82;100761.31;4964210;28;20051;-82
2022/04/19 05:23:34;;;;;;;7.45;6.30;;;;;;;10.88;49.40;100773.50;4964538;28;20051;-82
2022/04/19 05:26:01;;;;;;;7.68;6.18;;;;;;;10.72;49.15;100731.50;4963995;28;20504;-83
2022/04/19 05:28:27;;;;;;;10.63;6.47;;;;;;;10.79;49.60;100750.41;4965249;28;20061;-82
2022/04/19 05:30:54;;;;;;;7.18;6.47;;;;;;;10.56;50.29;100741.75;4964221;28;20263;-80
2022/04/19 05:33:21;;;;;;;8.90;6.55;;;;;;;10.65;50.59;100767.53;4964083;28;20453;-81
2022/04/19 05:35:47;;;;;;;9.25;6.60;;;;;;;10.32;50.15;100711.09;4964031;28;20520;-82
2022/04/19 05:38:14;;;;;;;7.30;6.57;;;;;;;10.60;50.42;100751.16;4944415;28;20046;-82
2022/04/19 05:40:41;;;;;;;8.52;6.45;;;;;;;10.45;51.06;100724.13;4945354;28;20051;-82
2022/04/19 05:43:07;;;;;;;15.13;7.72;;;;;;;9.97;50.68;100669.81;4945890;28;20435;-81
2022/04/19 05:45:34;;;;;;;8.40;6.53;;;;;;;10.58;50.12;100766.38;4945826;28;20055;-82
2022/04/19 05:48:01;;;;;;;7.63;6.93;;;;;;;10.41;50.55;100767.81;4945868;28;20058;-82
2022/04/19 05:50:27;;;;;;;8.65;5.93;;;;;;;10.44;50.17;100762.28;4965062;28;20513;-82
2022/04/19 05:52:54;;;;;;;7.57;6.75;;;;;;;10.42;49.79;100749.13;4965367;28;20082;-82
2022/04/19 05:55:20;;;;;;;7.55;6.68;;;;;;;10.51;48.75;100757.25;4964554;28;20038;-81
2022/04/19 05:57:47;;;;;;;9.82;7.22;;;;;;;10.41;48.36;100747.47;4964511;28;20051;-82
2022/04/19 06:00:14;;;;;;;10.85;6.30;;;;;;;10.30;47.98;100728.13;4964028;28;20521;-81
2022/04/19 06:05:26;;;;;;;7.15;6.45;;;;;;;10.50;47.84;100750.28;4939955;28;20471;-80
2022/04/19 06:07:54;;;;;;;11.02;6.70;;;;;;;10.56;48.03;100776.28;4951704;28;20054;-82
2022/04/19 06:10:22;;;;;;;11.63;6.60;;;;;;;10.52;48.01;100772.22;4950805;28;20537;-82
2022/04/19 06:12:48;;;;;;;8.82;6.38;;;;;;;10.57;48.25;100773.50;4948523;29;20146;-82
2022/04/19 06:15:15;;;;;;;7.60;6.30;;;;;;;10.54;48.04;100765.81;4948812;28;20130;-81
2022/04/19 06:17:42;;;;;;;8.00;7.20;;;;;;;10.62;48.31;100781.06;4948539;28;20405;-82
2022/04/19 06:20:09;;;;;;;7.07;6.45;;;;;;;10.34;48.17;100725.06;4948395;28;20051;-82
2022/04/19 06:22:36;;;;;;;8.27;6.20;;;;;;;10.64;47.98;100776.47;4948086;28;20671;-82
2022/04/19 06:25:03;;;;;;;7.22;6.50;;;;;;;10.59;47.73;100757.44;4967392;28;20497;-82
2022/04/19 06:27:30;;;;;;;6.75;6.15;;;;;;;10.62;48.04;100757.19;4969216;28;20050;-82
2022/04/19 06:29:58;;;;;;;6.38;5.72;;;;;;;10.72;46.74;100757.22;4967865;28;20055;-82
2022/04/19 06:32:25;;;;;;;7.15;6.20;;;;;;;10.32;47.24;100673.09;4967496;28;20098;-82
2022/04/19 06:34:53;;;;;;;8.50;6.53;;;;;;;10.93;47.04;100767.78;4967861;28;20065;-83
2022/04/19 06:37:22;;;;;;;6.65;6.05;;;;;;;10.91;47.16;100765.25;4968800;28;20078;-82
2022/04/19 06:39:49;;;;;;;6.70;5.72;;;;;;;11.04;46.73;100770.31;4967220;28;20512;-79
2022/04/19 06:42:16;;;;;;;7.28;6.43;;;;;;;11.00;47.57;100775.09;4967550;28;20085;-81
2022/04/19 06:44:44;;;;;;;8.02;6.05;;;;;;;11.06;46.51;100744.47;4967472;28;20524;-82
2022/04/19 06:47:10;;;;;;;9.63;6.75;;;;;;;11.19;46.91;100760.16;4983640;28;20133;-82
2022/04/19 06:49:38;;;;;;;6.65;6.05;;;;;;;11.34;46.19;100753.50;4983779;28;20138;-82
2022/04/19 06:52:06;;;;;;;6.97;6.25;;;;;;;11.51;46.03;100763.44;4968672;28;20081;-82
2022/04/19 06:54:33;;;;;;;6.78;6.07;;;;;;;11.22;46.09;100710.25;4968913;28;20590;-82
2022/04/19 06:57:00;;;;;;;8.45;6.38;;;;;;;11.54;46.48;100746.38;4968640;28;20058;-82
2022/04/19 06:59:27;;;;;;;6.78;6.18;;;;;;;11.80;46.01;100751.16;4968839;28;20055;-81
2022/04/19 07:01:53;;;;;;;9.13;6.40;;;;;;;11.47;44.98;100676.13;4976552;28;20114;-81
2022/04/19 07:04:20;;;;;;;8.35;6.13;;;;;;;11.85;45.29;100746.25;4981957;28;20058;-82
2022/04/19 07:06:46;;;;;;;9.57;6.78;;;;;;;11.75;45.44;100707.19;4972107;28;20539;-81
2022/04/19 07:09:13;;;;;;;10.75;6.72;;;;;;;11.80;46.17;100736.03;4971360;28;20058;-81
2022/04/19 07:11:40;;;;;;;7.13;6.43;;;;;;;12.08;44.88;100749.44;4968802;28;20080;-81
2022/04/19 07:14:06;;;;;;;9.52;5.97;;;;;;;12.19;44.16;100752.78;4967743;28;20058;-81
2022/04/19 07:16:33;;;;;;;8.73;6.57;;;;;;;11.93;44.54;100714.47;4966302;28;20295;-81
2022/04/19 07:18:59;;;;;;;7.43;6.65;;;;;;;12.08;44.18;100728.16;4967225;28;20417;-81
2022/04/19 07:27:21;;;;;;;8.82;7.28;;;;;;;12.39;44.63;100732.28;4948799;28;20146;-81
2022/04/19 07:29:47;;;;;;;11.90;6.90;;;;;;;12.46;44.11;100743.19;4947773;28;20518;-82
2022/04/19 07:32:14;;;;;;;7.20;6.50;;;;;;;12.33;44.97;100722.22;4947546;28;20568;-81
2022/04/19 07:34:41;;;;;;;8.05;7.20;;;;;;;12.61;44.96;100746.22;4947329;28;20051;-84
2022/04/19 07:37:07;;;;;;;9.07;6.60;;;;;;;12.32;44.88;100687.75;4946439;28;20086;-83
2022/04/19 07:39:34;;;;;;;8.15;6.85;;;;;;;12.64;44.29;100715.78;4946111;28;20047;-82
2022/04/19 07:42:01;;;;;;;9.23;7.10;;;;;;;12.82;44.28;100738.00;4946155;28;20142;-82
2022/04/19 07:44:29;;;;;;;7.57;6.88;;;;;;;12.76;44.42;100730.59;4946181;28;20061;-81
2022/04/19 07:47:14;;;;;;;10.40;6.78;;;;;;;12.72;44.30;100726.53;4947690;28;20574;-82
2022/04/19 07:49:41;;;;;;;8.70;5.78;;;;;;;12.79;43.46;100724.97;4946197;28;20062;-81
2022/04/19 07:52:08;;;;;;;8.75;6.05;;;;;;;12.91;43.16;100741.59;4947315;29;20066;-81
2022/04/19 07:54:35;;;;;;;12.80;6.18;;;;;;;13.07;42.67;100731.13;4961872;28;20050;-81
2022/04/19 07:57:02;;;;;;;6.50;5.85;;;;;;;12.51;42.72;100660.22;4965471;28;20141;-82
2022/04/19 07:59:29;;;;;;;6.78;6.03;;;;;;;13.09;42.35;100723.00;4966114;28;20054;-81
2022/04/19 08:01:55;;;;;;;8.85;5.57;;;;;;;13.05;41.73;100704.63;4966133;28;20382;-81
2022/04/19 08:04:22;;;;;;;6.63;5.53;;;;;;;13.09;41.46;100725.66;4966264;28;20117;-81
2022/04/19 08:06:49;;;;;;;6.38;5.38;;;;;;;12.47;41.35;100622.38;4968918;28;20052;-81
2022/04/19 08:09:15;;;;;;;8.57;5.57;;;;;;;12.82;41.27;100690.91;4946786;28;20055;-82
2022/04/19 08:11:42;;;;;;;7.82;5.55;;;;;;;12.80;41.86;100694.69;4947856;28;20058;-83
2022/04/19 08:14:09;;;;;;;5.70;5.22;;;;;;;12.64;41.52;100654.53;4946845;28;20477;-83
2022/04/19 08:16:35;;;;;;;6.70;5.70;;;;;;;13.12;41.09;100707.53;4948159;28;20047;-83
2022/04/19 08:19:02;;;;;;;7.35;5.15;;;;;;;12.99;41.03;100686.59;4948104;28;20051;-83
2022/04/19 08:21:29;;;;;;;8.65;6.10;;;;;;;13.09;40.60;100715.00;4946364;28;20224;-84
2022/04/19 08:23:55;;;;;;;9.52;5.40;;;;;;;13.12;41.26;100712.03;4946561;28;20051;-83
2022/04/19 08:26:22;;;;;;;5.97;5.45;;;;;;;12.98;41.43;100663.56;4946549;28;20065;-82
2022/04/19 08:28:49;;;;;;;8.00;5.70;;;;;;;13.11;41.69;100687.22;4946358;28;20058;-83
2022/04/19 08:31:15;;;;;;;5.88;5.28;;;;;;;12.78;41.87;100640.72;4946514;28;20374;-82
2022/04/19 08:33:42;;;;;;;6.25;5.65;;;;;;;12.88;41.95;100652.16;4946837;28;20102;-82
2022/04/19 08:36:09;;;;;;;9.32;5.78;;;;;;;12.80;41.36;100628.94;4946457;28;20055;-82
2022/04/19 08:38:36;;;;;;;6.53;5.82;;;;;;;13.24;41.80;100695.66;4947405;28;20058;-82
2022/04/19 08:41:04;;;;;;;6.43;5.72;;;;;;;13.33;41.63;100693.97;4948104;28;20572;-82
2022/04/19 08:43:31;;;;;;;6.07;5.57;;;;;;;13.03;41.48;100645.34;4946429;28;20494;-82
2022/04/19 08:45:59;;;;;;;9.10;6.40;;;;;;;13.54;41.94;100690.97;4946457;29;20055;-82
2022/04/19 08:48:26;;;;;;;7.45;6.60;;;;;;;13.61;42.18;100685.88;4947045;28;20411;-82
2022/04/19 08:50:56;;;;;;;9.38;6.38;;;;;;;13.45;42.66;100663.41;4946410;28;20062;-82
2022/04/19 08:58:55;;;;;;;8.02;6.93;;;;;;;13.53;42.88;100617.28;4947101;28;20073;-81
2022/04/19 09:01:21;;;;;;;8.23;6.40;;;;;;;14.09;42.70;100690.72;4945992;28;20113;-81
2022/04/19 09:03:49;;;;;;;7.38;6.68;;;;;;;13.83;42.16;100632.00;4945646;28;20441;-81
2022/04/19 09:06:16;;;;;;;7.65;6.95;;;;;;;14.11;43.24;100698.59;4942549;29;20063;-81
2022/04/19 09:09:09;;;;;;;7.82;7.00;;;;;;;14.28;42.98;100699.53;4942180;28;20050;-80
2022/04/19 09:11:36;;;;;;;8.38;6.35;;;;;;;14.26;42.85;100698.84;4926978;29;20064;-80
2022/04/19 09:14:07;;;;;;;7.93;7.20;;;;;;;14.02;42.65;100652.31;4942454;28;20058;-81
2022/04/19 09:16:34;;;;;;;10.23;6.97;;;;;;;14.42;42.63;100679.41;4942697;29;20055;-80
2022/04/19 09:19:01;;;;;;;6.90;6.07;;;;;;;14.50;42.54;100693.63;4942628;28;20828;-81
2022/04/19 09:21:39;;;;;;;6.82;5.93;;;;;;;14.73;41.13;100683.25;4942427;28;20056;-80
2022/04/19 09:24:27;;;;;;;6.35;5.85;;;;;;;14.92;40.50;100682.13;4938539;28;20055;-81
2022/04/19 09:26:54;;;;;;;8.70;6.07;;;;;;;14.37;40.79;100594.41;4945594;28;20210;-81
2022/04/19 09:29:25;;;;;;;7.72;5.97;;;;;;;15.03;40.31;100678.31;4945723;28;20137;-81
2022/04/19 09:31:57;;;;;;;8.90;6.38;;;;;;;14.93;40.67;100650.91;4947252;28;20055;-81
2022/04/19 09:34:28;;;;;;;6.68;6.05;;;;;;;15.13;41.51;100668.31;4945794;28;20211;-82
2022/04/19 09:37:07;;;;;;;8.38;6.60;;;;;;;15.38;41.41;100673.69;4946674;28;20580;-82
2022/04/19 09:39:36;;;;;;;7.40;6.15;;;;;;;15.40;40.42;100634.22;4947117;28;20051;-81
2022/04/19 09:42:13;;;;;;;8.18;5.82;;;;;;;15.73;38.62;100679.75;4950174;28;20055;-80
2022/04/19 09:44:50;;;;;;;6.78;6.07;;;;;;;15.96;38.71;100669.19;4950818;28;20070;-81
2022/04/19 09:47:19;;;;;;;9.55;6.15;;;;;;;15.88;38.23;100627.19;4949553;28;20043;-81
2022/04/19 09:49:54;;;;;;;6.88;5.82;;;;;;;15.77;37.46;100563.31;4949275;28;20505;-80
2022/04/19 09:52:24;;;;;;;6.18;5.57;;;;;;;16.24;37.49;100669.63;4949208;28;20055;-80
2022/04/19 09:55:10;;;;;;;6.65;6.00;;;;;;;16.19;37.89;100631.78;4949526;28;20063;-83
2022/04/19 09:57:45;;;;;;;8.32;6.95;;;;;;;16.45;38.05;100647.59;4949455;28;20081;-81
2022/04/19 10:00:24;;;;;;;7.68;5.55;;;;;;;15.37;38.67;100453.50;4950448;28;20240;-81
2022/04/19 10:08:26;;;;;;;6.93;5.72;;;;;;;17.10;37.09;100654.50;4949584;28;20055;-83
2022/04/19 10:10:56;;;;;;;5.13;4.70;;;;;;;17.26;36.15;100657.09;4949680;28;20409;-83
2022/04/19 10:13:24;;;;;;;4.97;4.47;;;;;;;17.24;34.47;100588.53;4947860;28;20054;-81
2022/04/19 10:15:51;;;;;;;7.18;5.05;;;;;;;17.70;35.05;100644.81;4948991;28;20214;-81
2022/04/19 10:18:18;;;;;;;4.97;4.47;;;;;;;17.12;34.44;100544.38;4949348;28;20062;-81
2022/04/19 10:20:50;;;;;;;4.45;4.05;;;;;;;17.38;33.79;100571.63;4947830;28;20516;-80
2022/04/19 10:23:17;;;;;;;5.07;4.53;;;;;;;17.80;34.54;100620.41;4943298;28;20082;-81
2022/04/19 10:25:48;;;;;;;4.75;4.20;;;;;;;17.94;33.43;100623.13;4931019;29;20083;-81
2022/04/19 10:28:27;;;;;;;4.55;4.15;;;;;;;18.34;33.16;100636.28;4929621;29;20422;-81
2022/04/19 10:30:54;;;;;;;6.88;4.57;;;;;;;18.35;32.82;100613.78;4929460;29;20513;-81
2022/04/19 10:33:41;;;;;;;5.70;4.50;;;;;;;18.62;32.67;100640.97;4929298;29;20047;-83
2022/04/19 10:36:16;;;;;;;6.22;4.65;;;;;;;18.72;33.42;100642.34;4929316;29;20039;-81
2022/04/19 10:38:45;;;;;;;5.22;4.43;;;;;;;18.42;33.57;100560.91;4929434;29;20059;-80
2022/04/19 10:41:57;;;;;;;5.15;4.68;;;;;;;18.97;32.95;100624.03;4929082;29;20059;-80
2022/04/19 10:44:41;;;;;;;5.18;4.07;;;;;;;18.99;31.98;100599.63;4927176;29;20062;-81
2022/04/19 10:47:12;;;;;;;5.20;4.35;;;;;;;19.30;32.54;100617.31;4928879;29;20047;-81
2022/04/19 10:49:50;;;;;;;5.32;4.70;;;;;;;19.42;32.46;100621.97;4929703;29;20054;-80
2022/04/19 10:52:35;;;;;;;7.10;3.83;;;;;;;19.66;31.70;100617.22;4938100;29;20061;-81
2022/04/19 10:55:08;;;;;;;5.45;4.13;;;;;;;19.88;32.11;100612.63;4946179;29;20048;-82
2022/04/19 11:00:35;;;;;;;5.35;4.40;;;;;;;19.75;29.98;100553.28;4947800;29;20066;-84
2022/04/19 11:03:37;;;;;;;4.05;3.72;;;;;;;20.31;30.62;100614.31;4932049;29;20104;-83
2022/04/19 11:06:10;;;;;;;4.90;4.50;;;;;;;20.34;31.25;100597.72;4933859;29;20506;-83
2022/04/19 11:08:37;;;;;;;6.25;4.38;;;;;;;20.28;30.89;100578.63;4930909;29;20056;-84
2022/04/19 11:11:07;;;;;;;5.60;4.78;;;;;;;20.04;31.37;100533.31;4944916;28;20650;-83
2022/04/19 11:13:39;;;;;;;5.43;4.93;;;;;;;20.49;31.01;100575.00;4944293;28;20052;-83
2022/04/19 11:16:13;;;;;;;3.70;3.40;;;;;;;20.63;31.19;100564.25;4929579;29;20055;-83
2022/04/19 11:18:40;;;;;;;4.30;3.90;;;;;;;21.08;30.41;100586.97;4944670;29;20058;-84
2022/04/19 11:21:53;;;;;;;6.60;4.00;;;;;;;21.10;28.75;100587.59;4930423;29;20063;-83
2022/04/19 11:25:03;;;;;;;7.63;3.50;;;;;;;21.21;29.17;100558.34;4947771;28;20553;-84
2022/04/19 11:28:02;;;;;;;3.83;3.15;;;;;;;21.44;27.83;100566.88;4949370;28;20063;-83
2022/04/19 11:30:29;;;;;;;3.67;3.38;;;;;;;21.16;27.91;100502.25;4916107;29;20552;-83
2022/04/19 11:32:58;;;;;;;4.25;3.85;;;;;;;21.53;27.75;100554.84;4947702;28;20481;-84
2022/04/19 11:35:26;;;;;;;4.68;3.20;;;;;;;21.33;27.84;100548.56;4948345;28;20059;-84
2022/04/19 11:37:53;;;;;;;3.83;3.45;;;;;;;21.37;28.75;100522.81;4948529;28;20482;-83
2022/04/19 11:48:48;;;;;;;4.88;3.97;;;;;;;22.57;27.66;100534.13;4948301;28;20416;-83
2022/04/19 11:51:17;;;;;;;4.07;3.13;;;;;;;22.72;25.68;100519.44;4946883;28;20416;-84
2022/04/19 11:53:44;;;;;;;3.22;2.92;;;;;;;22.79;25.83;100502.13;4947261;28;20059;-84
2022/04/19 11:56:11;;;;;;;3.95;3.50;;;;;;;23.09;25.54;100509.63;4947165;28;20780;-83
2022/04/19 11:58:41;;;;;;;3.88;3.20;;;;;;;22.92;26.78;100471.44;4959161;28;20042;-83
2022/04/19 12:01:09;;;;;;;4.70;3.90;;;;;;;23.41;27.25;100528.53;4967220;28;20081;-83
2022/04/19 12:03:37;;;;;;;3.47;3.17;;;;;;;23.25;26.14;100476.59;4964916;28;20058;-84
2022/04/19 12:06:09;;;;;;;5.35;3.15;;;;;;;23.43;25.58;100523.72;4960395;28;20054;-84
2022/04/19 12:08:44;;;;;;;6.53;3.10;;;;;;;23.38;26.07;100518.13;4958071;28;20066;-83
2022/04/19 12:11:19;;;;;;;7.03;3.17;;;;;;;23.43;25.53;100507.47;4966981;28;20054;-81
2022/04/19 12:13:47;;;;;;;3.20;3.00;;;;;;;23.47;26.15;100489.69;4965976;28;20417;-82
2022/04/19 12:16:33;;;;;;;3.97;3.20;;;;;;;23.92;25.34;100516.53;4965904;28;20058;-83